createdAt,value
2022-12-16T00:04:16.744Z,1.00
2022-12-16T00:09:23.635Z,1.00
2022-12-16T00:14:29.996Z,1.00
2022-12-16T00:19:37.693Z,1.00
2022-12-16T00:24:44.470Z,1.00
2022-12-16T00:29:50.830Z,1.00
2022-12-16T00:34:57.149Z,1.00
2022-12-16T00:40:03.533Z,1.00
2022-12-16T00:45:10.973Z,1.00
2022-12-16T00:50:18.796Z,1.00
2022-12-16T00:55:25.965Z,1.00
2022-12-16T01:00:32.202Z,1.00
2022-12-16T01:05:40.733Z,1.00
2022-12-16T01:10:58.765Z,1.00
2022-12-16T01:16:06.105Z,1.00
2022-12-16T01:21:16.025Z,1.00
2022-12-16T01:26:23.568Z,1.00
2022-12-16T01:31:30.464Z,1.00
2022-12-16T01:36:37.093Z,1.00
2022-12-16T01:41:45.336Z,1.00
2022-12-16T01:47:01.882Z,1.00
2022-12-16T01:52:10.239Z,1.00
2022-12-16T01:57:21.961Z,1.00
2022-12-16T02:02:29.019Z,1.00
2022-12-16T02:07:36.426Z,1.00
2022-12-16T02:13:11.106Z,1.00
2022-12-16T02:18:50.828Z,1.00
2022-12-16T02:24:19.182Z,1.00
2022-12-16T02:29:45.700Z,1.00
2022-12-16T02:35:14.300Z,1.00
2022-12-16T02:40:34.623Z,1.00
2022-12-16T02:45:42.022Z,1.00
2022-12-16T02:50:51.695Z,1.00
2022-12-16T02:56:11.875Z,1.00
2022-12-16T03:01:43.624Z,1.00
2022-12-16T03:06:52.522Z,1.00
2022-12-16T03:12:02.538Z,1.00
2022-12-16T03:17:10.728Z,1.00
2022-12-16T03:22:27.309Z,1.00
2022-12-16T03:27:44.295Z,1.00
2022-12-16T03:33:08.001Z,1.00
2022-12-16T03:38:15.855Z,1.00
2022-12-16T03:43:22.847Z,1.00
2022-12-16T03:48:29.188Z,1.00
2022-12-16T03:53:36.097Z,1.00
2022-12-16T03:58:42.819Z,1.00
2022-12-16T04:03:49.954Z,1.00
2022-12-16T04:08:55.368Z,1.00
2022-12-16T04:14:19.602Z,1.00
2022-12-16T04:19:51.014Z,1.00
2022-12-16T04:24:57.774Z,1.00
2022-12-16T04:30:22.743Z,1.00
2022-12-16T04:35:46.441Z,1.00
2022-12-16T04:41:10.191Z,1.00
2022-12-16T04:46:34.742Z,1.00
2022-12-16T04:51:58.738Z,1.00
2022-12-16T04:57:22.918Z,1.00
2022-12-16T05:02:47.434Z,1.00
2022-12-16T05:08:12.168Z,1.00
2022-12-16T05:13:37.386Z,1.00
2022-12-16T05:19:01.721Z,1.00
2022-12-16T05:24:25.812Z,1.00
2022-12-16T05:29:49.823Z,1.00
2022-12-16T05:35:13.906Z,1.00
2022-12-16T05:40:37.916Z,1.00
2022-12-16T05:46:02.551Z,1.00
2022-12-16T05:51:26.358Z,1.00
2022-12-16T05:56:51.290Z,1.00
2022-12-16T06:02:16.061Z,1.00
2022-12-16T06:07:40.593Z,1.00
2022-12-16T06:13:06.454Z,1.00
2022-12-16T06:18:31.192Z,1.00
2022-12-16T06:23:54.846Z,1.00
2022-12-16T06:29:18.710Z,1.00
2022-12-16T06:34:43.187Z,1.00
2022-12-16T06:40:07.634Z,1.00
2022-12-16T06:45:34.871Z,1.00
2022-12-16T06:50:58.964Z,1.00
2022-12-16T06:56:23.214Z,20.20
2022-12-16T07:01:47.694Z,56.90
2022-12-16T07:07:12.619Z,34.90
2022-12-16T07:12:36.952Z,45.80
2022-12-16T07:18:01.308Z,70.10
2022-12-16T07:23:25.159Z,59.10
2022-12-16T07:28:50.032Z,70.50
2022-12-16T07:34:14.131Z,71.90
2022-12-16T07:39:38.468Z,90.90
2022-12-16T07:45:02.578Z,21.70
2022-12-16T07:50:27.105Z,65.00
2022-12-16T07:55:50.958Z,99.90
2022-12-16T08:01:15.439Z,99.90
2022-12-16T08:06:40.535Z,99.90
2022-12-16T08:12:04.343Z,99.90
2022-12-16T08:17:28.649Z,99.90
2022-12-16T08:22:52.899Z,75.60
2022-12-16T08:28:18.616Z,1.60
2022-12-16T08:33:43.285Z,1.00
2022-12-16T08:39:07.777Z,1.00
2022-12-16T08:44:33.244Z,1.00
2022-12-16T08:49:59.871Z,1.00
2022-12-16T08:55:27.776Z,1.00
2022-12-16T09:00:48.785Z,1.00
2022-12-16T09:06:17.928Z,1.00
2022-12-16T09:11:42.102Z,1.00
2022-12-16T09:17:07.195Z,1.00
2022-12-16T09:22:31.262Z,1.00
2022-12-16T09:27:55.273Z,1.00
2022-12-16T09:33:22.263Z,1.00
2022-12-16T09:38:46.827Z,1.00
2022-12-16T09:44:18.611Z,1.00
2022-12-16T09:50:05.683Z,1.00
2022-12-16T09:55:47.112Z,1.00
2022-12-16T10:01:10.848Z,1.00
2022-12-16T10:07:01.642Z,1.00
2022-12-16T10:12:58.287Z,1.00
2022-12-16T10:18:26.323Z,1.00
2022-12-16T10:24:01.359Z,1.00
2022-12-16T10:29:40.840Z,1.00
2022-12-16T10:35:04.922Z,1.00
2022-12-16T10:40:34.495Z,1.00
2022-12-16T10:46:02.561Z,1.00
2022-12-16T10:51:34.313Z,1.00
2022-12-16T10:57:20.502Z,1.00
2022-12-16T11:02:46.896Z,1.00
2022-12-16T11:08:13.461Z,1.00
2022-12-16T11:13:45.498Z,1.00
2022-12-16T11:19:11.016Z,1.00
2022-12-16T11:24:39.049Z,1.00
2022-12-16T11:30:12.987Z,1.00
2022-12-16T11:35:41.682Z,1.00
2022-12-16T11:41:09.593Z,1.00
2022-12-16T11:46:49.017Z,1.00
2022-12-16T11:57:46.527Z,1.00
2022-12-16T12:03:18.428Z,1.00
2022-12-16T12:09:06.639Z,1.00
2022-12-16T12:14:47.047Z,1.00
2022-12-16T12:20:15.575Z,1.00
2022-12-16T12:25:56.211Z,1.00
2022-12-16T12:31:49.285Z,1.00
2022-12-16T12:37:45.304Z,1.00
2022-12-16T12:43:15.521Z,1.00
2022-12-16T12:48:53.017Z,1.00
2022-12-16T12:54:44.047Z,1.00
2022-12-16T13:00:21.115Z,1.00
2022-12-16T13:05:49.450Z,1.00
2022-12-16T13:11:17.802Z,1.00
2022-12-16T13:17:17.993Z,1.00
2022-12-16T13:22:55.046Z,1.00
2022-12-16T13:28:18.837Z,1.00
2022-12-16T13:33:47.152Z,1.00
2022-12-16T13:39:18.058Z,1.00
2022-12-16T13:45:05.576Z,1.00
2022-12-16T13:50:56.560Z,1.00
2022-12-16T13:56:21.129Z,1.00
2022-12-16T14:02:08.376Z,1.00
2022-12-16T14:07:35.875Z,1.00
2022-12-16T14:13:13.545Z,1.00
2022-12-16T14:18:53.740Z,1.00
2022-12-16T14:24:20.719Z,1.00
2022-12-16T14:29:50.339Z,1.00
2022-12-16T14:35:12.388Z,1.00
2022-12-16T14:40:43.269Z,1.00
2022-12-16T14:46:09.528Z,1.00
2022-12-16T14:51:49.417Z,1.00
2022-12-16T14:57:16.744Z,1.00
2022-12-16T15:02:54.281Z,1.00
2022-12-16T15:08:19.942Z,1.00
2022-12-16T15:13:46.126Z,1.00
2022-12-16T15:19:14.428Z,1.00
2022-12-16T15:24:41.900Z,1.00
2022-12-16T15:30:06.244Z,1.00
2022-12-16T15:35:55.057Z,1.00
2022-12-16T15:41:22.169Z,1.00
2022-12-16T15:46:48.953Z,1.00
2022-12-16T15:52:13.198Z,1.00
2022-12-16T15:57:52.539Z,1.00
2022-12-16T16:03:16.719Z,1.00
2022-12-16T16:08:43.664Z,1.00
2022-12-16T16:14:13.969Z,1.00
2022-12-16T16:19:40.455Z,1.00
2022-12-16T16:25:04.542Z,1.00
2022-12-16T16:30:30.377Z,1.00
2022-12-16T16:35:54.922Z,1.00
2022-12-16T16:41:19.415Z,1.00
2022-12-16T16:46:59.299Z,1.00
2022-12-16T16:52:23.348Z,1.00
2022-12-16T16:57:53.249Z,1.00
2022-12-16T17:03:17.464Z,1.00
2022-12-16T17:08:42.970Z,1.00
2022-12-16T17:14:08.036Z,1.00
2022-12-16T17:19:33.299Z,1.00
2022-12-16T17:24:58.011Z,1.00
2022-12-16T17:30:22.407Z,1.00
2022-12-16T17:35:46.843Z,1.00
2022-12-16T17:41:12.722Z,1.00
2022-12-16T17:46:36.993Z,1.00
2022-12-16T17:52:01.960Z,1.00
2022-12-16T17:57:28.292Z,1.00
2022-12-16T18:02:53.371Z,1.00
2022-12-16T18:08:18.123Z,1.00
2022-12-16T18:13:42.646Z,1.00
2022-12-16T18:19:09.900Z,1.00
2022-12-16T18:24:33.999Z,1.00
2022-12-16T18:29:58.745Z,1.00
2022-12-16T18:35:23.039Z,1.00
2022-12-16T18:40:47.437Z,1.00
2022-12-16T18:46:13.691Z,1.00
2022-12-16T18:51:37.978Z,1.00
2022-12-16T18:57:02.040Z,1.00
2022-12-16T19:02:27.647Z,1.00
2022-12-16T19:07:53.776Z,1.00
2022-12-16T19:13:19.753Z,1.00
2022-12-16T19:18:44.779Z,1.00
2022-12-16T19:24:05.747Z,1.00
2022-12-16T19:29:29.399Z,1.00
2022-12-16T19:34:56.740Z,1.00
2022-12-16T19:40:23.145Z,1.00
2022-12-16T19:45:47.948Z,1.00
2022-12-16T19:51:18.215Z,1.00
2022-12-16T19:56:43.397Z,1.00
2022-12-16T20:02:08.500Z,1.00
2022-12-16T20:07:34.460Z,1.00
2022-12-16T20:12:58.942Z,1.00
2022-12-16T20:18:25.763Z,1.00
2022-12-16T20:23:50.598Z,1.00
2022-12-16T20:29:16.646Z,1.00
2022-12-16T20:34:41.832Z,1.00
2022-12-16T20:40:07.211Z,1.00
2022-12-16T20:45:32.543Z,1.00
2022-12-16T20:50:56.803Z,1.00
2022-12-16T20:56:21.799Z,1.00
2022-12-16T21:02:01.562Z,1.00
2022-12-16T21:07:14.203Z,1.00
2022-12-16T21:12:38.073Z,1.00
2022-12-16T21:18:01.981Z,1.00
2022-12-16T21:23:27.609Z,1.00
2022-12-16T21:28:52.509Z,1.00
2022-12-16T21:34:19.291Z,1.00
2022-12-16T21:39:44.399Z,1.00
2022-12-16T21:45:08.660Z,1.00
2022-12-16T21:50:34.114Z,1.00
2022-12-16T21:55:58.649Z,1.00
2022-12-16T22:01:23.492Z,1.00
2022-12-16T22:06:49.122Z,1.00
2022-12-16T22:12:13.238Z,1.00
2022-12-16T22:17:37.946Z,1.00
2022-12-16T22:23:01.731Z,1.00
2022-12-16T22:28:27.101Z,1.00
2022-12-16T22:33:52.968Z,1.00
2022-12-16T22:39:18.189Z,1.00
2022-12-16T22:44:43.154Z,1.00
2022-12-16T22:50:07.499Z,1.00
2022-12-16T22:55:31.602Z,1.00
2022-12-16T23:00:56.509Z,1.00
2022-12-16T23:06:21.229Z,1.00
2022-12-16T23:11:51.802Z,1.00
2022-12-16T23:17:16.095Z,1.00
2022-12-16T23:22:40.151Z,1.00
2022-12-16T23:28:04.211Z,1.00
2022-12-16T23:33:27.836Z,1.00
2022-12-16T23:38:53.360Z,1.00
2022-12-16T23:44:17.094Z,1.00
2022-12-16T23:49:41.633Z,1.00
2022-12-16T23:55:06.517Z,1.00
